sensor_id;sensor_type;location;lat;lon;timestamp;P1;durP1;ratioP1;P2;durP2;ratioP2
16391;SDS011;8305;-33.882;151.134;2023-03-01T00:02:09;5.72;;;3.88;;
16391;SDS011;8305;-33.882;151.134;2023-03-01T00:04:40;7.78;;;3.88;;
16391;SDS011;8305;-33.882;151.134;2023-03-01T00:07:13;7.43;;;4.25;;
16391;SDS011;8305;-33.882;151.134;2023-03-01T00:09:44;11.52;;;4.50;;
16391;SDS011;8305;-33.882;151.134;2023-03-01T00:12:15;5.28;;;4.07;;
16391;SDS011;8305;-33.882;151.134;2023-03-01T00:14:46;8.48;;;3.88;;
16391;SDS011;8305;-33.882;151.134;2023-03-01T00:17:17;6.07;;;4.00;;
16391;SDS011;8305;-33.882;151.134;2023-03-01T00:19:48;7.85;;;4.40;;
16391;SDS011;8305;-33.882;151.134;2023-03-01T00:22:21;5.53;;;3.60;;
16391;SDS011;8305;-33.882;151.134;2023-03-01T00:24:52;5.03;;;3.20;;
16391;SDS011;8305;-33.882;151.134;2023-03-01T00:27:24;5.90;;;3.47;;
16391;SDS011;8305;-33.882;151.134;2023-03-01T00:29:55;6.63;;;3.20;;
16391;SDS011;8305;-33.882;151.134;2023-03-01T00:32:26;8.27;;;3.90;;
16391;SDS011;8305;-33.882;151.134;2023-03-01T00:34:57;7.10;;;3.15;;
16391;SDS011;8305;-33.882;151.134;2023-03-01T00:37:30;5.32;;;3.30;;
16391;SDS011;8305;-33.882;151.134;2023-03-01T00:40:01;3.88;;;3.17;;
16391;SDS011;8305;-33.882;151.134;2023-03-01T00:42:33;5.45;;;3.13;;
16391;SDS011;8305;-33.882;151.134;2023-03-01T00:45:04;5.28;;;3.00;;
16391;SDS011;8305;-33.882;151.134;2023-03-01T00:47:36;7.68;;;3.10;;
16391;SDS011;8305;-33.882;151.134;2023-03-01T00:50:07;5.20;;;3.13;;
16391;SDS011;8305;-33.882;151.134;2023-03-01T00:52:41;6.60;;;3.08;;
16391;SDS011;8305;-33.882;151.134;2023-03-01T00:55:12;11.07;;;3.10;;
16391;SDS011;8305;-33.882;151.134;2023-03-01T00:57:43;6.93;;;2.08;;
16391;SDS011;8305;-33.882;151.134;2023-03-01T01:00:14;7.18;;;2.00;;
16391;SDS011;8305;-33.882;151.134;2023-03-01T01:02:46;4.18;;;1.85;;
16391;SDS011;8305;-33.882;151.134;2023-03-01T01:05:17;6.10;;;2.20;;
16391;SDS011;8305;-33.882;151.134;2023-03-01T01:07:50;5.45;;;1.95;;
16391;SDS011;8305;-33.882;151.134;2023-03-01T01:10:24;3.92;;;2.00;;
16391;SDS011;8305;-33.882;151.134;2023-03-01T01:12:55;3.05;;;1.77;;
16391;SDS011;8305;-33.882;151.134;2023-03-01T01:15:26;6.32;;;1.85;;
16391;SDS011;8305;-33.882;151.134;2023-03-01T01:17:57;4.50;;;2.03;;
16391;SDS011;8305;-33.882;151.134;2023-03-01T01:20:29;4.28;;;2.00;;
16391;SDS011;8305;-33.882;151.134;2023-03-01T01:23:02;4.82;;;1.90;;
16391;SDS011;8305;-33.882;151.134;2023-03-01T01:25:36;4.55;;;1.77;;
16391;SDS011;8305;-33.882;151.134;2023-03-01T01:28:07;5.40;;;1.70;;
16391;SDS011;8305;-33.882;151.134;2023-03-01T01:30:38;4.10;;;1.90;;
16391;SDS011;8305;-33.882;151.134;2023-03-01T01:33:09;7.63;;;1.60;;
16391;SDS011;8305;-33.882;151.134;2023-03-01T01:35:40;4.00;;;1.85;;
16391;SDS011;8305;-33.882;151.134;2023-03-01T01:38:15;3.20;;;1.40;;
16391;SDS011;8305;-33.882;151.134;2023-03-01T01:40:47;4.50;;;1.23;;
16391;SDS011;8305;-33.882;151.134;2023-03-01T01:43:20;4.85;;;1.50;;
16391;SDS011;8305;-33.882;151.134;2023-03-01T01:45:53;3.35;;;1.27;;
16391;SDS011;8305;-33.882;151.134;2023-03-01T01:48:28;3.97;;;1.38;;
16391;SDS011;8305;-33.882;151.134;2023-03-01T01:51:07;6.40;;;1.35;;
16391;SDS011;8305;-33.882;151.134;2023-03-01T01:53:44;4.60;;;1.40;;
16391;SDS011;8305;-33.882;151.134;2023-03-01T01:56:19;4.75;;;1.30;;
16391;SDS011;8305;-33.882;151.134;2023-03-01T01:58:53;2.38;;;1.23;;
16391;SDS011;8305;-33.882;151.134;2023-03-01T02:01:25;2.55;;;1.33;;
16391;SDS011;8305;-33.882;151.134;2023-03-01T02:03:57;3.08;;;1.35;;
16391;SDS011;8305;-33.882;151.134;2023-03-01T02:06:32;2.92;;;1.33;;
16391;SDS011;8305;-33.882;151.134;2023-03-01T02:09:10;4.43;;;1.52;;
16391;SDS011;8305;-33.882;151.134;2023-03-01T02:11:42;3.03;;;1.30;;
16391;SDS011;8305;-33.882;151.134;2023-03-01T02:14:14;5.57;;;1.50;;
16391;SDS011;8305;-33.882;151.134;2023-03-01T02:16:45;5.00;;;1.40;;
16391;SDS011;8305;-33.882;151.134;2023-03-01T02:19:19;4.88;;;1.33;;
16391;SDS011;8305;-33.882;151.134;2023-03-01T02:22:00;3.90;;;1.30;;
16391;SDS011;8305;-33.882;151.134;2023-03-01T02:24:43;3.35;;;1.38;;
16391;SDS011;8305;-33.882;151.134;2023-03-01T02:27:25;2.80;;;1.40;;
16391;SDS011;8305;-33.882;151.134;2023-03-01T02:30:05;4.93;;;1.33;;
16391;SDS011;8305;-33.882;151.134;2023-03-01T02:32:38;1.80;;;1.30;;
16391;SDS011;8305;-33.882;151.134;2023-03-01T02:35:09;3.38;;;1.48;;
16391;SDS011;8305;-33.882;151.134;2023-03-01T02:37:42;1.17;;;1.02;;
16391;SDS011;8305;-33.882;151.134;2023-03-01T02:40:14;5.93;;;1.50;;
16391;SDS011;8305;-33.882;151.134;2023-03-01T02:42:49;3.58;;;1.40;;
16391;SDS011;8305;-33.882;151.134;2023-03-01T02:45:26;2.75;;;1.20;;
16391;SDS011;8305;-33.882;151.134;2023-03-01T02:47:59;1.20;;;1.10;;
16391;SDS011;8305;-33.882;151.134;2023-03-01T02:50:41;1.83;;;1.30;;
16391;SDS011;8305;-33.882;151.134;2023-03-01T02:53:27;2.50;;;1.20;;
16391;SDS011;8305;-33.882;151.134;2023-03-01T02:56:05;2.75;;;1.20;;
16391;SDS011;8305;-33.882;151.134;2023-03-01T02:58:39;1.38;;;1.10;;
16391;SDS011;8305;-33.882;151.134;2023-03-01T03:01:21;4.68;;;1.25;;
16391;SDS011;8305;-33.882;151.134;2023-03-01T03:04:04;1.80;;;1.25;;
16391;SDS011;8305;-33.882;151.134;2023-03-01T03:06:36;2.35;;;1.10;;
16391;SDS011;8305;-33.882;151.134;2023-03-01T03:09:07;3.28;;;1.30;;
16391;SDS011;8305;-33.882;151.134;2023-03-01T03:11:38;3.65;;;1.00;;
16391;SDS011;8305;-33.882;151.134;2023-03-01T03:14:10;2.10;;;1.00;;
16391;SDS011;8305;-33.882;151.134;2023-03-01T03:16:45;1.25;;;1.00;;
16391;SDS011;8305;-33.882;151.134;2023-03-01T03:19:18;2.67;;;1.33;;
16391;SDS011;8305;-33.882;151.134;2023-03-01T03:21:49;2.05;;;1.00;;
16391;SDS011;8305;-33.882;151.134;2023-03-01T03:24:20;4.03;;;1.13;;
16391;SDS011;8305;-33.882;151.134;2023-03-01T03:26:51;3.15;;;1.20;;
16391;SDS011;8305;-33.882;151.134;2023-03-01T03:29:22;4.22;;;1.20;;
16391;SDS011;8305;-33.882;151.134;2023-03-01T03:31:55;2.88;;;1.00;;
16391;SDS011;8305;-33.882;151.134;2023-03-01T03:34:26;4.68;;;0.93;;
16391;SDS011;8305;-33.882;151.134;2023-03-01T03:36:57;5.18;;;0.93;;
16391;SDS011;8305;-33.882;151.134;2023-03-01T03:39:29;4.38;;;1.13;;
16391;SDS011;8305;-33.882;151.134;2023-03-01T03:42:01;3.20;;;0.90;;
16391;SDS011;8305;-33.882;151.134;2023-03-01T03:44:32;6.30;;;1.10;;
16391;SDS011;8305;-33.882;151.134;2023-03-01T03:47:05;3.30;;;0.98;;
16391;SDS011;8305;-33.882;151.134;2023-03-01T03:49:36;5.25;;;0.90;;
16391;SDS011;8305;-33.882;151.134;2023-03-01T03:52:07;2.47;;;0.70;;
16391;SDS011;8305;-33.882;151.134;2023-03-01T03:54:40;2.08;;;0.80;;
16391;SDS011;8305;-33.882;151.134;2023-03-01T03:57:13;3.95;;;0.80;;
16391;SDS011;8305;-33.882;151.134;2023-03-01T03:59:44;2.28;;;0.77;;
16391;SDS011;8305;-33.882;151.134;2023-03-01T04:02:17;2.05;;;0.55;;
16391;SDS011;8305;-33.882;151.134;2023-03-01T04:04:48;2.30;;;0.45;;
16391;SDS011;8305;-33.882;151.134;2023-03-01T04:07:19;2.10;;;0.50;;
16391;SDS011;8305;-33.882;151.134;2023-03-01T04:09:50;0.90;;;0.55;;
16391;SDS011;8305;-33.882;151.134;2023-03-01T04:12:22;2.35;;;0.50;;
16391;SDS011;8305;-33.882;151.134;2023-03-01T04:14:54;2.78;;;0.70;;
16391;SDS011;8305;-33.882;151.134;2023-03-01T04:17:30;2.97;;;0.50;;
16391;SDS011;8305;-33.882;151.134;2023-03-01T04:20:01;2.13;;;0.30;;
16391;SDS011;8305;-33.882;151.134;2023-03-01T04:22:33;2.30;;;0.50;;
16391;SDS011;8305;-33.882;151.134;2023-03-01T04:25:04;3.20;;;0.38;;
16391;SDS011;8305;-33.882;151.134;2023-03-01T04:27:40;2.60;;;0.65;;
16391;SDS011;8305;-33.882;151.134;2023-03-01T04:30:11;2.85;;;0.47;;
16391;SDS011;8305;-33.882;151.134;2023-03-01T04:32:44;1.83;;;0.50;;
16391;SDS011;8305;-33.882;151.134;2023-03-01T04:35:16;3.70;;;0.75;;
16391;SDS011;8305;-33.882;151.134;2023-03-01T04:37:47;4.47;;;0.55;;
16391;SDS011;8305;-33.882;151.134;2023-03-01T04:40:19;2.97;;;0.60;;
16391;SDS011;8305;-33.882;151.134;2023-03-01T04:42:50;2.97;;;0.80;;
16391;SDS011;8305;-33.882;151.134;2023-03-01T04:45:21;2.08;;;0.70;;
16391;SDS011;8305;-33.882;151.134;2023-03-01T04:47:54;2.38;;;0.70;;
16391;SDS011;8305;-33.882;151.134;2023-03-01T04:50:27;2.25;;;0.73;;
16391;SDS011;8305;-33.882;151.134;2023-03-01T04:52:58;3.70;;;0.80;;
16391;SDS011;8305;-33.882;151.134;2023-03-01T04:55:29;1.80;;;0.80;;
16391;SDS011;8305;-33.882;151.134;2023-03-01T04:58:00;6.05;;;0.75;;
16391;SDS011;8305;-33.882;151.134;2023-03-01T05:00:31;3.28;;;0.77;;
16391;SDS011;8305;-33.882;151.134;2023-03-01T05:03:04;1.90;;;0.77;;
16391;SDS011;8305;-33.882;151.134;2023-03-01T05:05:37;2.33;;;0.90;;
16391;SDS011;8305;-33.882;151.134;2023-03-01T05:08:10;3.63;;;0.93;;
16391;SDS011;8305;-33.882;151.134;2023-03-01T05:10:43;4.05;;;0.95;;
16391;SDS011;8305;-33.882;151.134;2023-03-01T05:13:18;4.18;;;0.90;;
16391;SDS011;8305;-33.882;151.134;2023-03-01T05:15:54;4.72;;;0.90;;
16391;SDS011;8305;-33.882;151.134;2023-03-01T05:18:28;2.65;;;0.68;;
16391;SDS011;8305;-33.882;151.134;2023-03-01T05:21:02;2.72;;;0.90;;
16391;SDS011;8305;-33.882;151.134;2023-03-01T05:23:34;3.47;;;0.88;;
16391;SDS011;8305;-33.882;151.134;2023-03-01T05:26:05;4.25;;;1.10;;
16391;SDS011;8305;-33.882;151.134;2023-03-01T05:28:38;6.22;;;1.05;;
16391;SDS011;8305;-33.882;151.134;2023-03-01T05:31:10;3.72;;;0.80;;
16391;SDS011;8305;-33.882;151.134;2023-03-01T05:33:43;3.80;;;0.82;;
16391;SDS011;8305;-33.882;151.134;2023-03-01T05:36:15;7.30;;;1.20;;
16391;SDS011;8305;-33.882;151.134;2023-03-01T05:38:46;4.95;;;1.10;;
16391;SDS011;8305;-33.882;151.134;2023-03-01T05:41:18;5.35;;;0.95;;
16391;SDS011;8305;-33.882;151.134;2023-03-01T05:43:51;5.43;;;0.93;;
16391;SDS011;8305;-33.882;151.134;2023-03-01T05:46:22;3.20;;;1.10;;
16391;SDS011;8305;-33.882;151.134;2023-03-01T05:48:55;5.35;;;1.27;;
16391;SDS011;8305;-33.882;151.134;2023-03-01T05:51:26;8.65;;;1.38;;
16391;SDS011;8305;-33.882;151.134;2023-03-01T05:54:01;3.65;;;0.98;;
16391;SDS011;8305;-33.882;151.134;2023-03-01T05:56:33;4.32;;;1.05;;
16391;SDS011;8305;-33.882;151.134;2023-03-01T05:59:04;4.72;;;1.20;;
16391;SDS011;8305;-33.882;151.134;2023-03-01T06:01:37;5.05;;;1.10;;
16391;SDS011;8305;-33.882;151.134;2023-03-01T06:04:11;6.65;;;1.25;;
16391;SDS011;8305;-33.882;151.134;2023-03-01T06:06:44;6.38;;;1.48;;
16391;SDS011;8305;-33.882;151.134;2023-03-01T06:09:16;5.45;;;1.52;;
16391;SDS011;8305;-33.882;151.134;2023-03-01T06:11:49;5.85;;;1.40;;
16391;SDS011;8305;-33.882;151.134;2023-03-01T06:14:20;5.25;;;1.30;;
16391;SDS011;8305;-33.882;151.134;2023-03-01T06:16:51;9.05;;;1.55;;
16391;SDS011;8305;-33.882;151.134;2023-03-01T06:19:24;4.57;;;1.23;;
16391;SDS011;8305;-33.882;151.134;2023-03-01T06:21:55;8.60;;;1.50;;
16391;SDS011;8305;-33.882;151.134;2023-03-01T06:24:26;8.30;;;1.50;;
16391;SDS011;8305;-33.882;151.134;2023-03-01T06:26:57;7.05;;;1.33;;
16391;SDS011;8305;-33.882;151.134;2023-03-01T06:29:28;12.02;;;1.73;;
16391;SDS011;8305;-33.882;151.134;2023-03-01T06:31:59;7.28;;;1.55;;
16391;SDS011;8305;-33.882;151.134;2023-03-01T06:34:33;6.45;;;1.50;;
16391;SDS011;8305;-33.882;151.134;2023-03-01T06:37:04;6.90;;;1.48;;
16391;SDS011;8305;-33.882;151.134;2023-03-01T06:39:35;9.52;;;1.50;;
16391;SDS011;8305;-33.882;151.134;2023-03-01T06:42:07;8.00;;;1.98;;
16391;SDS011;8305;-33.882;151.134;2023-03-01T06:44:40;9.38;;;1.77;;
16391;SDS011;8305;-33.882;151.134;2023-03-01T06:47:12;6.28;;;1.35;;
16391;SDS011;8305;-33.882;151.134;2023-03-01T06:49:45;8.32;;;1.50;;
16391;SDS011;8305;-33.882;151.134;2023-03-01T06:52:16;7.97;;;1.52;;
16391;SDS011;8305;-33.882;151.134;2023-03-01T06:54:47;10.18;;;1.50;;
16391;SDS011;8305;-33.882;151.134;2023-03-01T06:57:18;6.03;;;1.58;;
16391;SDS011;8305;-33.882;151.134;2023-03-01T06:59:49;8.50;;;1.60;;
16391;SDS011;8305;-33.882;151.134;2023-03-01T07:02:22;10.18;;;1.60;;
16391;SDS011;8305;-33.882;151.134;2023-03-01T07:04:55;9.35;;;1.83;;
16391;SDS011;8305;-33.882;151.134;2023-03-01T07:07:26;10.73;;;1.60;;
16391;SDS011;8305;-33.882;151.134;2023-03-01T07:09:57;10.20;;;1.92;;
16391;SDS011;8305;-33.882;151.134;2023-03-01T07:12:28;8.60;;;1.67;;
16391;SDS011;8305;-33.882;151.134;2023-03-01T07:14:59;8.95;;;1.80;;
16391;SDS011;8305;-33.882;151.134;2023-03-01T07:17:30;9.52;;;2.03;;
16391;SDS011;8305;-33.882;151.134;2023-03-01T07:20:03;8.32;;;1.95;;
16391;SDS011;8305;-33.882;151.134;2023-03-01T07:22:35;6.95;;;1.67;;
16391;SDS011;8305;-33.882;151.134;2023-03-01T07:25:08;15.63;;;1.95;;
16391;SDS011;8305;-33.882;151.134;2023-03-01T07:27:41;7.72;;;1.80;;
16391;SDS011;8305;-33.882;151.134;2023-03-01T07:30:12;10.43;;;1.90;;
16391;SDS011;8305;-33.882;151.134;2023-03-01T07:32:44;10.50;;;1.92;;
16391;SDS011;8305;-33.882;151.134;2023-03-01T07:35:17;9.20;;;2.00;;
16391;SDS011;8305;-33.882;151.134;2023-03-01T07:37:48;9.25;;;1.98;;
16391;SDS011;8305;-33.882;151.134;2023-03-01T07:40:19;9.80;;;2.30;;
16391;SDS011;8305;-33.882;151.134;2023-03-01T07:42:55;8.73;;;1.80;;
16391;SDS011;8305;-33.882;151.134;2023-03-01T07:45:26;7.40;;;1.80;;
16391;SDS011;8305;-33.882;151.134;2023-03-01T07:47:57;10.95;;;1.90;;
16391;SDS011;8305;-33.882;151.134;2023-03-01T07:50:30;7.88;;;1.75;;
16391;SDS011;8305;-33.882;151.134;2023-03-01T07:53:01;10.82;;;1.80;;
16391;SDS011;8305;-33.882;151.134;2023-03-01T07:55:32;9.45;;;1.60;;
16391;SDS011;8305;-33.882;151.134;2023-03-01T07:58:03;9.23;;;1.80;;
16391;SDS011;8305;-33.882;151.134;2023-03-01T08:00:34;9.50;;;1.63;;
16391;SDS011;8305;-33.882;151.134;2023-03-01T08:03:05;11.25;;;1.95;;
16391;SDS011;8305;-33.882;151.134;2023-03-01T08:05:38;9.45;;;1.67;;
16391;SDS011;8305;-33.882;151.134;2023-03-01T08:08:09;14.73;;;2.22;;
16391;SDS011;8305;-33.882;151.134;2023-03-01T08:10:40;9.35;;;2.03;;
16391;SDS011;8305;-33.882;151.134;2023-03-01T08:13:12;12.02;;;2.10;;
16391;SDS011;8305;-33.882;151.134;2023-03-01T08:15:48;10.25;;;1.80;;
16391;SDS011;8305;-33.882;151.134;2023-03-01T08:18:19;11.55;;;1.98;;
16391;SDS011;8305;-33.882;151.134;2023-03-01T08:20:53;10.63;;;1.77;;
16391;SDS011;8305;-33.882;151.134;2023-03-01T08:23:24;11.15;;;2.40;;
16391;SDS011;8305;-33.882;151.134;2023-03-01T08:26:02;8.57;;;2.05;;
16391;SDS011;8305;-33.882;151.134;2023-03-01T08:28:35;7.40;;;1.70;;
16391;SDS011;8305;-33.882;151.134;2023-03-01T08:31:13;10.73;;;2.33;;
16391;SDS011;8305;-33.882;151.134;2023-03-01T08:33:45;10.38;;;2.10;;
16391;SDS011;8305;-33.882;151.134;2023-03-01T08:36:23;10.73;;;2.00;;
16391;SDS011;8305;-33.882;151.134;2023-03-01T08:38:55;7.72;;;2.03;;
16391;SDS011;8305;-33.882;151.134;2023-03-01T08:41:26;12.95;;;2.10;;
16391;SDS011;8305;-33.882;151.134;2023-03-01T08:43:57;11.23;;;1.67;;
16391;SDS011;8305;-33.882;151.134;2023-03-01T08:46:31;8.20;;;1.90;;
16391;SDS011;8305;-33.882;151.134;2023-03-01T08:49:03;9.63;;;1.90;;
16391;SDS011;8305;-33.882;151.134;2023-03-01T08:51:37;11.93;;;2.00;;
16391;SDS011;8305;-33.882;151.134;2023-03-01T08:54:09;10.18;;;1.73;;
16391;SDS011;8305;-33.882;151.134;2023-03-01T08:56:42;10.40;;;2.20;;
16391;SDS011;8305;-33.882;151.134;2023-03-01T08:59:13;8.90;;;2.22;;
16391;SDS011;8305;-33.882;151.134;2023-03-01T09:01:45;13.90;;;2.13;;
16391;SDS011;8305;-33.882;151.134;2023-03-01T09:04:16;8.20;;;1.90;;
16391;SDS011;8305;-33.882;151.134;2023-03-01T09:06:50;10.32;;;2.10;;
16391;SDS011;8305;-33.882;151.134;2023-03-01T09:09:21;9.98;;;2.13;;
16391;SDS011;8305;-33.882;151.134;2023-03-01T09:11:52;10.50;;;1.98;;
16391;SDS011;8305;-33.882;151.134;2023-03-01T09:14:23;11.38;;;2.33;;
16391;SDS011;8305;-33.882;151.134;2023-03-01T09:16:54;10.25;;;2.08;;
16391;SDS011;8305;-33.882;151.134;2023-03-01T09:19:29;10.10;;;2.08;;
16391;SDS011;8305;-33.882;151.134;2023-03-01T09:22:02;7.43;;;1.70;;
16391;SDS011;8305;-33.882;151.134;2023-03-01T09:24:36;7.38;;;2.00;;
16391;SDS011;8305;-33.882;151.134;2023-03-01T09:27:07;8.98;;;1.90;;
16391;SDS011;8305;-33.882;151.134;2023-03-01T09:29:39;11.00;;;1.80;;
16391;SDS011;8305;-33.882;151.134;2023-03-01T09:32:10;8.35;;;2.00;;
16391;SDS011;8305;-33.882;151.134;2023-03-01T09:34:43;10.52;;;1.95;;
16391;SDS011;8305;-33.882;151.134;2023-03-01T09:37:33;8.23;;;2.00;;
16391;SDS011;8305;-33.882;151.134;2023-03-01T09:40:05;9.68;;;2.20;;
16391;SDS011;8305;-33.882;151.134;2023-03-01T09:42:46;12.23;;;2.55;;
16391;SDS011;8305;-33.882;151.134;2023-03-01T09:45:26;9.23;;;1.90;;
16391;SDS011;8305;-33.882;151.134;2023-03-01T09:48:02;12.88;;;2.30;;
16391;SDS011;8305;-33.882;151.134;2023-03-01T09:50:40;11.07;;;2.00;;
16391;SDS011;8305;-33.882;151.134;2023-03-01T09:53:16;11.38;;;2.10;;
16391;SDS011;8305;-33.882;151.134;2023-03-01T09:55:49;10.02;;;2.15;;
16391;SDS011;8305;-33.882;151.134;2023-03-01T09:58:31;10.80;;;2.63;;
16391;SDS011;8305;-33.882;151.134;2023-03-01T10:01:23;7.78;;;1.83;;
16391;SDS011;8305;-33.882;151.134;2023-03-01T10:04:06;7.85;;;1.98;;
16391;SDS011;8305;-33.882;151.134;2023-03-01T10:07:06;11.20;;;2.28;;
16391;SDS011;8305;-33.882;151.134;2023-03-01T10:09:47;8.68;;;2.03;;
16391;SDS011;8305;-33.882;151.134;2023-03-01T10:12:19;7.47;;;1.80;;
16391;SDS011;8305;-33.882;151.134;2023-03-01T10:14:55;9.57;;;2.13;;
16391;SDS011;8305;-33.882;151.134;2023-03-01T10:17:33;10.15;;;2.50;;
16391;SDS011;8305;-33.882;151.134;2023-03-01T10:20:16;9.00;;;2.17;;
16391;SDS011;8305;-33.882;151.134;2023-03-01T10:22:50;10.30;;;2.53;;
16391;SDS011;8305;-33.882;151.134;2023-03-01T10:25:28;7.15;;;2.20;;
16391;SDS011;8305;-33.882;151.134;2023-03-01T10:28:13;8.48;;;2.30;;
16391;SDS011;8305;-33.882;151.134;2023-03-01T10:30:46;8.38;;;2.03;;
16391;SDS011;8305;-33.882;151.134;2023-03-01T10:33:18;10.88;;;2.10;;
16391;SDS011;8305;-33.882;151.134;2023-03-01T10:35:52;11.20;;;2.22;;
16391;SDS011;8305;-33.882;151.134;2023-03-01T10:38:23;11.00;;;2.60;;
16391;SDS011;8305;-33.882;151.134;2023-03-01T10:40:58;11.40;;;2.53;;
16391;SDS011;8305;-33.882;151.134;2023-03-01T10:43:42;12.10;;;1.95;;
16391;SDS011;8305;-33.882;151.134;2023-03-01T10:46:24;13.68;;;2.70;;
16391;SDS011;8305;-33.882;151.134;2023-03-01T10:49:07;11.32;;;2.20;;
16391;SDS011;8305;-33.882;151.134;2023-03-01T10:51:44;13.73;;;2.30;;
16391;SDS011;8305;-33.882;151.134;2023-03-01T10:54:17;7.25;;;2.08;;
16391;SDS011;8305;-33.882;151.134;2023-03-01T10:56:51;9.20;;;2.38;;
16391;SDS011;8305;-33.882;151.134;2023-03-01T10:59:28;10.77;;;2.40;;
16391;SDS011;8305;-33.882;151.134;2023-03-01T11:04:59;6.43;;;2.38;;
16391;SDS011;8305;-33.882;151.134;2023-03-01T11:07:46;15.63;;;2.80;;
16391;SDS011;8305;-33.882;151.134;2023-03-01T11:10:20;9.13;;;2.60;;
16391;SDS011;8305;-33.882;151.134;2023-03-01T11:12:54;12.27;;;2.40;;
16391;SDS011;8305;-33.882;151.134;2023-03-01T11:15:37;9.02;;;2.17;;
16391;SDS011;8305;-33.882;151.134;2023-03-01T11:18:18;9.48;;;2.38;;
16391;SDS011;8305;-33.882;151.134;2023-03-01T11:20:51;6.07;;;1.92;;
16391;SDS011;8305;-33.882;151.134;2023-03-01T11:23:24;8.30;;;2.30;;
16391;SDS011;8305;-33.882;151.134;2023-03-01T11:25:58;11.48;;;2.75;;
16391;SDS011;8305;-33.882;151.134;2023-03-01T11:28:36;9.02;;;2.40;;
16391;SDS011;8305;-33.882;151.134;2023-03-01T11:31:09;10.63;;;2.17;;
16391;SDS011;8305;-33.882;151.134;2023-03-01T11:33:43;12.48;;;2.50;;
16391;SDS011;8305;-33.882;151.134;2023-03-01T11:36:19;11.15;;;2.25;;
16391;SDS011;8305;-33.882;151.134;2023-03-01T11:38:57;10.00;;;2.55;;
16391;SDS011;8305;-33.882;151.134;2023-03-01T11:41:39;11.23;;;2.25;;
16391;SDS011;8305;-33.882;151.134;2023-03-01T11:44:14;6.75;;;2.38;;
16391;SDS011;8305;-33.882;151.134;2023-03-01T11:46:58;8.52;;;2.10;;
16391;SDS011;8305;-33.882;151.134;2023-03-01T11:49:53;7.05;;;2.13;;
16391;SDS011;8305;-33.882;151.134;2023-03-01T11:52:43;7.07;;;1.90;;
16391;SDS011;8305;-33.882;151.134;2023-03-01T11:55:26;7.53;;;1.88;;
16391;SDS011;8305;-33.882;151.134;2023-03-01T11:58:14;6.93;;;2.25;;
16391;SDS011;8305;-33.882;151.134;2023-03-01T12:01:11;10.07;;;2.28;;
16391;SDS011;8305;-33.882;151.134;2023-03-01T12:04:03;9.63;;;2.58;;
16391;SDS011;8305;-33.882;151.134;2023-03-01T12:06:53;7.18;;;2.10;;
16391;SDS011;8305;-33.882;151.134;2023-03-01T12:09:34;7.65;;;2.17;;
16391;SDS011;8305;-33.882;151.134;2023-03-01T12:12:25;9.13;;;1.92;;
16391;SDS011;8305;-33.882;151.134;2023-03-01T12:21:30;8.43;;;2.22;;
16391;SDS011;8305;-33.882;151.134;2023-03-01T12:24:20;8.40;;;2.30;;
16391;SDS011;8305;-33.882;151.134;2023-03-01T12:27:11;10.13;;;2.40;;
16391;SDS011;8305;-33.882;151.134;2023-03-01T12:30:01;6.13;;;2.03;;
16391;SDS011;8305;-33.882;151.134;2023-03-01T12:32:47;9.40;;;2.10;;
16391;SDS011;8305;-33.882;151.134;2023-03-01T12:35:34;7.20;;;2.00;;
16391;SDS011;8305;-33.882;151.134;2023-03-01T12:38:25;8.27;;;2.45;;
16391;SDS011;8305;-33.882;151.134;2023-03-01T12:41:19;13.10;;;2.30;;
16391;SDS011;8305;-33.882;151.134;2023-03-01T12:44:08;6.70;;;2.03;;
16391;SDS011;8305;-33.882;151.134;2023-03-01T12:46:56;6.60;;;1.70;;
16391;SDS011;8305;-33.882;151.134;2023-03-01T12:49:40;7.85;;;2.22;;
16391;SDS011;8305;-33.882;151.134;2023-03-01T12:52:16;10.25;;;2.40;;
16391;SDS011;8305;-33.882;151.134;2023-03-01T12:54:53;10.90;;;2.60;;
16391;SDS011;8305;-33.882;151.134;2023-03-01T12:57:26;9.63;;;2.30;;
16391;SDS011;8305;-33.882;151.134;2023-03-01T13:00:06;8.57;;;1.90;;
16391;SDS011;8305;-33.882;151.134;2023-03-01T13:02:49;8.60;;;2.05;;
16391;SDS011;8305;-33.882;151.134;2023-03-01T13:05:31;7.47;;;2.00;;
16391;SDS011;8305;-33.882;151.134;2023-03-01T13:08:11;9.95;;;2.67;;
16391;SDS011;8305;-33.882;151.134;2023-03-01T13:10:51;10.15;;;2.50;;
16391;SDS011;8305;-33.882;151.134;2023-03-01T13:13:26;7.03;;;2.10;;
16391;SDS011;8305;-33.882;151.134;2023-03-01T13:15:57;8.43;;;2.22;;
16391;SDS011;8305;-33.882;151.134;2023-03-01T13:19:09;12.18;;;2.63;;
16391;SDS011;8305;-33.882;151.134;2023-03-01T13:21:44;9.25;;;2.40;;
16391;SDS011;8305;-33.882;151.134;2023-03-01T13:24:26;8.70;;;2.65;;
16391;SDS011;8305;-33.882;151.134;2023-03-01T13:27:18;7.38;;;2.35;;
16391;SDS011;8305;-33.882;151.134;2023-03-01T13:29:58;7.07;;;2.13;;
16391;SDS011;8305;-33.882;151.134;2023-03-01T13:32:32;8.85;;;2.17;;
16391;SDS011;8305;-33.882;151.134;2023-03-01T13:35:08;8.70;;;2.28;;
16391;SDS011;8305;-33.882;151.134;2023-03-01T13:41:13;6.88;;;2.42;;
16391;SDS011;8305;-33.882;151.134;2023-03-01T13:43:46;11.60;;;2.15;;
16391;SDS011;8305;-33.882;151.134;2023-03-01T13:46:20;8.70;;;2.28;;
16391;SDS011;8305;-33.882;151.134;2023-03-01T13:48:53;6.35;;;2.00;;
16391;SDS011;8305;-33.882;151.134;2023-03-01T13:51:26;8.82;;;2.45;;
16391;SDS011;8305;-33.882;151.134;2023-03-01T13:53:58;6.93;;;2.30;;
16391;SDS011;8305;-33.882;151.134;2023-03-01T13:56:33;7.90;;;2.30;;
16391;SDS011;8305;-33.882;151.134;2023-03-01T13:59:12;8.10;;;2.20;;
16391;SDS011;8305;-33.882;151.134;2023-03-01T14:01:44;9.98;;;2.03;;
16391;SDS011;8305;-33.882;151.134;2023-03-01T14:04:23;8.57;;;2.33;;
16391;SDS011;8305;-33.882;151.134;2023-03-01T14:09:46;7.28;;;2.17;;
16391;SDS011;8305;-33.882;151.134;2023-03-01T14:12:25;8.75;;;2.40;;
16391;SDS011;8305;-33.882;151.134;2023-03-01T14:15:09;11.32;;;2.30;;
16391;SDS011;8305;-33.882;151.134;2023-03-01T14:17:52;7.88;;;2.38;;
16391;SDS011;8305;-33.882;151.134;2023-03-01T14:20:28;12.25;;;2.17;;
16391;SDS011;8305;-33.882;151.134;2023-03-01T14:23:02;15.75;;;3.25;;
16391;SDS011;8305;-33.882;151.134;2023-03-01T14:25:46;7.60;;;2.22;;
16391;SDS011;8305;-33.882;151.134;2023-03-01T14:28:20;7.72;;;2.10;;
16391;SDS011;8305;-33.882;151.134;2023-03-01T14:30:56;6.13;;;2.17;;
16391;SDS011;8305;-33.882;151.134;2023-03-01T14:33:28;11.32;;;2.50;;
16391;SDS011;8305;-33.882;151.134;2023-03-01T14:36:00;10.55;;;2.35;;
16391;SDS011;8305;-33.882;151.134;2023-03-01T14:38:33;9.43;;;2.45;;
16391;SDS011;8305;-33.882;151.134;2023-03-01T14:41:06;7.05;;;2.13;;
16391;SDS011;8305;-33.882;151.134;2023-03-01T14:43:38;6.88;;;1.88;;
16391;SDS011;8305;-33.882;151.134;2023-03-01T14:46:23;10.07;;;2.35;;
16391;SDS011;8305;-33.882;151.134;2023-03-01T14:48:56;11.60;;;2.30;;
16391;SDS011;8305;-33.882;151.134;2023-03-01T14:51:31;6.50;;;2.08;;
16391;SDS011;8305;-33.882;151.134;2023-03-01T14:54:10;6.25;;;2.22;;
16391;SDS011;8305;-33.882;151.134;2023-03-01T14:56:49;8.57;;;2.20;;
16391;SDS011;8305;-33.882;151.134;2023-03-01T14:59:22;9.23;;;2.38;;
16391;SDS011;8305;-33.882;151.134;2023-03-01T15:01:57;11.20;;;2.70;;
16391;SDS011;8305;-33.882;151.134;2023-03-01T15:04:28;6.72;;;2.20;;
16391;SDS011;8305;-33.882;151.134;2023-03-01T15:06:59;7.20;;;2.25;;
16391;SDS011;8305;-33.882;151.134;2023-03-01T15:09:31;9.25;;;2.35;;
16391;SDS011;8305;-33.882;151.134;2023-03-01T15:17:53;7.03;;;2.35;;
16391;SDS011;8305;-33.882;151.134;2023-03-01T15:20:25;10.68;;;2.67;;
16391;SDS011;8305;-33.882;151.134;2023-03-01T15:22:58;7.00;;;2.20;;
16391;SDS011;8305;-33.882;151.134;2023-03-01T15:25:30;10.00;;;2.78;;